Sunday, July 22, 2018, 1:48 AM CDT
Back to Local

KGCK, Garden City Regional Airport

Location: Garden City, KS, United States Lat: 37.917
Local Time: 1:48 AM CDT ( 6:48 GMT) Lon: -100.717
Time Zone: US/Central Elev: 2890 ft

Show me the last for .
Show Decoded

2018-07-22 00:54 METAR KGCK 220554Z AUTO 10007KT 10SM CLR 24/18 A3005 RMK AO2 SLP134 T02440183
                 10333 20244 403390189 53008 =
2018-07-21 23:54 METAR KGCK 220454Z AUTO 12010KT 10SM CLR 25/18 A3003 RMK AO2 SLP130 T02500183 =
2018-07-21 22:54 METAR KGCK 220354Z AUTO 12013KT 10SM CLR 26/18 A3002 RMK AO2 SLP127 T02560183 =
2018-07-21 21:54 METAR KGCK 220254Z AUTO 12010KT 10SM CLR 27/18 A3002 RMK AO2 SLP129 T02670183
                 53005 =
2018-07-21 20:54 METAR KGCK 220154Z 12014KT 10SM CLR 28/18 A3000 RMK AO2 SLP121 T02830183 =
2018-07-21 19:54 METAR KGCK 220054Z 12013KT 10SM CLR 32/18 A3000 RMK AO2 PK WND 12026/0011 SLP120
                 T03170183 =
2018-07-21 18:54 METAR KGCK 212354Z 12016G25KT 10SM CLR 33/18 A3000 RMK AO2 SLP122 T03280178
                 10339 20306 58014 =
2018-07-21 17:54 METAR KGCK 212254Z 15016KT 10SM CLR 33/18 A3003 RMK AO2 SLP130 T03330178 =
2018-07-21 16:54 METAR KGCK 212154Z 15012KT 10SM CLR 33/17 A3004 RMK AO2 SLP134 T03330167 =
2018-07-21 15:54 METAR KGCK 212054Z 14013KT 10SM CLR 31/17 A3005 RMK AO2 SLP136 T03110167 56010 =
2018-07-21 14:54 METAR KGCK 211954Z 15014KT 10SM CLR 33/17 A3006 RMK AO2 SLP137 T03330167 =
2018-07-21 13:54 METAR KGCK 211854Z 14012KT 10SM CLR 32/18 A3007 RMK AO2 SLP144 T03170178 =
2018-07-21 12:54 METAR KGCK 211754Z 12013KT 10SM CLR 31/18 A3008 RMK AO2 SLP148 T03060183 10306
                 20189 58006 =
2018-07-21 11:54 METAR KGCK 211654Z 13014G20KT 10SM CLR 28/18 A3009 RMK AO2 SLP154 T02830183 =
2018-07-21 10:54 METAR KGCK 211554Z 11013KT 10SM CLR 26/18 A3010 RMK AO2 SLP161 T02610183 =
2018-07-21 09:54 METAR KGCK 211454Z 10011KT 10SM CLR 24/18 A3010 RMK AO2 SLP162 T02440178 53006 =
2018-07-21 08:54 METAR KGCK 211354Z 09005KT 10SM CLR 22/18 A3009 RMK AO2 SLP157 T02220183 =
2018-07-21 07:54 METAR KGCK 211254Z 08006KT 10SM CLR 20/17 A3009 RMK AO2 SLP151 T02000172 =
2018-07-21 06:54 METAR KGCK 211154Z AUTO 11005KT 9SM CLR 19/18 A3008 RMK AO2 SLP147 70009
                 T01890178 10228 20189 53022 =
2018-07-21 05:54 METAR KGCK 211054Z AUTO 07006KT 9SM CLR 20/19 A3005 RMK AO2 SLP135 T02000189 =
2018-07-21 04:54 METAR KGCK 210954Z AUTO 00000KT 10SM CLR 21/19 A3003 RMK AO2 SLP125 T02060189 =
2018-07-21 03:54 METAR KGCK 210854Z AUTO 12007KT 10SM CLR 22/20 A3001 RMK AO2 SLP119 T02170200
                 53004 =
2018-07-21 02:54 METAR KGCK 210754Z AUTO 09010KT 10SM CLR 22/19 A3000 RMK AO2 SLP117 T02170194 =
2018-07-21 01:54 METAR KGCK 210654Z AUTO 07011KT 10SM CLR 22/17 A3000 RMK AO2 SLP115 T02170172 =

Support USWX by starting your Amazon purchase here.